createdAt,value
2019-03-31T00:01:33.272Z,64.29
2019-03-31T00:04:05.136Z,64.13
2019-03-31T00:06:37.348Z,64.10
2019-03-31T00:09:09.623Z,64.22
2019-03-31T00:11:43.190Z,64.11
2019-03-31T00:14:14.016Z,64.23
2019-03-31T00:16:44.655Z,64.21
2019-03-31T00:19:15.370Z,64.57
2019-03-31T00:21:52.038Z,64.82
2019-03-31T00:24:22.748Z,64.93
2019-03-31T00:26:53.424Z,65.34
2019-03-31T00:29:24.154Z,65.34
2019-03-31T00:31:55.079Z,65.50
2019-03-31T00:34:25.778Z,65.41
2019-03-31T00:36:56.775Z,65.79
2019-03-31T00:39:27.575Z,66.45
2019-03-31T00:41:58.347Z,66.43
2019-03-31T00:44:29.189Z,66.67
2019-03-31T00:47:02.239Z,66.71
2019-03-31T00:49:32.234Z,66.99
2019-03-31T00:52:02.968Z,66.97
2019-03-31T00:54:33.677Z,66.69
2019-03-31T00:57:04.423Z,67.03
2019-03-31T00:59:35.036Z,66.92
2019-03-31T01:02:11.811Z,67.01
2019-03-31T01:04:42.572Z,66.84
2019-03-31T01:07:13.442Z,66.34
2019-03-31T01:09:44.696Z,65.96
2019-03-31T01:12:15.352Z,65.74
2019-03-31T01:14:46.369Z,65.75
2019-03-31T01:17:19.060Z,65.83
2019-03-31T01:19:50.672Z,65.54
2019-03-31T01:22:21.372Z,65.84
2019-03-31T01:24:52.163Z,65.78
2019-03-31T01:27:23.317Z,65.72
2019-03-31T01:29:54.102Z,66.06
2019-03-31T01:32:25.031Z,66.06
2019-03-31T01:34:55.740Z,66.32
2019-03-31T01:37:26.551Z,66.66
2019-03-31T01:39:57.235Z,67.15
2019-03-31T01:42:27.996Z,67.07
2019-03-31T01:44:58.873Z,67.23
2019-03-31T01:47:29.643Z,67.34
2019-03-31T01:50:00.405Z,67.84
2019-03-31T01:52:31.032Z,68.34
2019-03-31T01:55:01.707Z,69.01
2019-03-31T01:57:32.372Z,68.75
2019-03-31T02:00:03.897Z,69.56
2019-03-31T02:02:35.072Z,69.93
2019-03-31T02:05:06.403Z,70.55
2019-03-31T02:07:37.160Z,70.86
2019-03-31T02:10:09.003Z,71.00
2019-03-31T02:12:39.781Z,71.39
2019-03-31T02:15:10.591Z,71.59
2019-03-31T02:17:41.293Z,71.27
2019-03-31T02:20:11.959Z,71.59
2019-03-31T02:22:43.523Z,71.54
2019-03-31T02:25:14.217Z,71.81
2019-03-31T02:27:44.880Z,72.46
2019-03-31T02:30:15.645Z,72.48
2019-03-31T02:32:46.328Z,72.70
2019-03-31T02:35:17.153Z,72.89
2019-03-31T02:37:47.871Z,73.26
2019-03-31T02:40:18.518Z,73.06
2019-03-31T02:42:49.186Z,73.30
2019-03-31T02:45:19.901Z,73.40
2019-03-31T02:47:50.597Z,73.55
2019-03-31T02:50:48.866Z,73.21
2019-03-31T02:53:20.878Z,73.16
2019-03-31T02:55:53.063Z,73.12
2019-03-31T02:58:23.801Z,73.65
2019-03-31T03:00:55.491Z,73.81
2019-03-31T03:03:27.864Z,73.98
2019-03-31T03:06:00.298Z,73.86
2019-03-31T03:08:33.721Z,74.13
2019-03-31T03:11:05.236Z,74.52
2019-03-31T03:13:36.793Z,74.77
2019-03-31T03:16:17.207Z,74.88
2019-03-31T03:18:48.758Z,74.57
2019-03-31T03:21:23.639Z,75.41
2019-03-31T03:23:53.306Z,75.43
2019-03-31T03:26:24.086Z,75.08
2019-03-31T03:28:54.921Z,75.66
2019-03-31T03:31:25.645Z,75.92
2019-03-31T03:33:56.366Z,76.05
2019-03-31T03:36:27.047Z,76.03
2019-03-31T03:38:57.829Z,76.09
2019-03-31T03:41:28.473Z,76.38
2019-03-31T03:44:02.374Z,77.46
2019-03-31T03:46:31.561Z,78.96
2019-03-31T03:49:02.377Z,78.39
2019-03-31T03:51:33.180Z,78.46
2019-03-31T03:54:03.985Z,78.52
2019-03-31T03:56:34.671Z,78.22
2019-03-31T03:59:05.555Z,78.20
2019-03-31T04:01:36.212Z,78.12
2019-03-31T04:04:06.926Z,79.19
2019-03-31T04:06:37.580Z,79.46
2019-03-31T04:09:08.270Z,79.13
2019-03-31T04:11:38.899Z,79.34
2019-03-31T04:14:09.688Z,79.94
2019-03-31T04:16:40.347Z,79.75
2019-03-31T04:19:11.115Z,80.07
2019-03-31T04:21:41.762Z,80.10
2019-03-31T04:24:12.446Z,80.07
2019-03-31T04:26:43.128Z,80.24
2019-03-31T04:29:13.843Z,79.70
2019-03-31T04:31:44.570Z,79.69
2019-03-31T04:34:15.275Z,79.44
2019-03-31T04:36:46.943Z,79.52
2019-03-31T04:39:17.648Z,79.55
2019-03-31T04:41:48.300Z,79.20
2019-03-31T04:44:18.981Z,78.79
2019-03-31T04:46:52.470Z,78.59
2019-03-31T04:49:23.182Z,78.41
2019-03-31T04:51:53.854Z,78.76
2019-03-31T04:54:24.531Z,78.55
2019-03-31T04:56:55.211Z,78.23
2019-03-31T04:59:26.013Z,78.18
2019-03-31T05:01:56.667Z,78.18
2019-03-31T05:04:27.381Z,77.77
2019-03-31T05:06:58.190Z,77.67
2019-03-31T05:09:28.896Z,77.56
2019-03-31T05:11:59.576Z,77.40
2019-03-31T05:14:30.434Z,77.28
2019-03-31T05:17:01.167Z,76.96
2019-03-31T05:19:31.862Z,76.94
2019-03-31T05:22:02.592Z,77.07
2019-03-31T05:24:33.315Z,77.08
2019-03-31T05:27:03.961Z,76.71
2019-03-31T05:29:34.635Z,76.36
2019-03-31T05:32:05.331Z,75.99
2019-03-31T05:34:36.025Z,75.94
2019-03-31T05:37:06.677Z,75.69
2019-03-31T05:39:37.392Z,75.24
2019-03-31T05:42:08.098Z,75.22
2019-03-31T05:44:38.779Z,74.73
2019-03-31T05:47:09.756Z,74.89
2019-03-31T05:49:40.554Z,74.97
2019-03-31T05:52:11.591Z,74.94
2019-03-31T05:54:42.250Z,74.16
2019-03-31T05:57:13.048Z,74.03
2019-03-31T05:59:43.843Z,73.81
2019-03-31T06:02:14.492Z,73.92
2019-03-31T06:04:46.256Z,74.04
2019-03-31T06:07:16.965Z,73.99
2019-03-31T06:09:47.642Z,74.00
2019-03-31T06:12:18.583Z,73.88
2019-03-31T06:14:49.227Z,73.65
2019-03-31T06:17:19.901Z,73.16
2019-03-31T06:19:50.637Z,73.32
2019-03-31T06:22:21.441Z,73.40
2019-03-31T06:24:52.178Z,73.60
2019-03-31T06:27:22.833Z,73.32
2019-03-31T06:29:53.583Z,73.39
2019-03-31T06:32:24.232Z,72.99
2019-03-31T06:34:54.969Z,72.68
2019-03-31T06:37:25.713Z,72.53
2019-03-31T06:39:56.474Z,71.67
2019-03-31T06:42:27.262Z,71.23
2019-03-31T06:44:58.276Z,70.93
2019-03-31T06:47:29.090Z,70.17
2019-03-31T06:50:02.690Z,70.88
2019-03-31T06:52:37.475Z,71.19
2019-03-31T06:55:10.980Z,71.15
2019-03-31T06:57:43.283Z,71.12
2019-03-31T07:00:14.763Z,70.60
2019-03-31T07:02:48.951Z,70.05
2019-03-31T07:05:22.157Z,69.00
2019-03-31T07:07:55.125Z,68.35
2019-03-31T07:10:27.369Z,68.10
2019-03-31T07:12:59.877Z,68.30
2019-03-31T07:15:30.853Z,68.18
2019-03-31T07:18:01.881Z,68.74
2019-03-31T07:20:34.097Z,68.98
2019-03-31T07:23:07.697Z,68.80
2019-03-31T07:25:38.493Z,69.60
2019-03-31T07:28:09.563Z,69.54
2019-03-31T07:30:40.237Z,69.65
2019-03-31T07:33:11.907Z,70.15
2019-03-31T07:35:42.796Z,70.35
2019-03-31T07:38:17.560Z,69.95
2019-03-31T07:40:48.342Z,70.43
2019-03-31T07:43:19.153Z,69.94
2019-03-31T07:45:50.428Z,69.44
2019-03-31T07:48:21.514Z,69.48
2019-03-31T07:50:57.588Z,69.31
2019-03-31T07:53:28.409Z,69.33
2019-03-31T07:56:04.282Z,69.05
2019-03-31T07:58:37.700Z,68.46
2019-03-31T08:01:08.467Z,68.23
2019-03-31T08:03:39.233Z,66.69
2019-03-31T08:06:13.187Z,67.64
2019-03-31T08:08:43.945Z,66.50
2019-03-31T08:11:18.890Z,65.99
2019-03-31T08:13:55.403Z,65.51
2019-03-31T08:16:27.888Z,65.74
2019-03-31T08:21:48.362Z,65.33
2019-03-31T08:24:21.421Z,65.63
2019-03-31T08:26:53.143Z,65.20
2019-03-31T08:29:24.009Z,65.45
2019-03-31T08:31:54.924Z,64.76
2019-03-31T08:34:28.208Z,63.95
2019-03-31T08:36:58.930Z,63.60
2019-03-31T08:39:29.655Z,64.00
2019-03-31T08:42:02.096Z,63.96
2019-03-31T08:44:32.918Z,64.13
2019-03-31T08:47:04.449Z,63.89
2019-03-31T08:49:36.164Z,64.27
2019-03-31T08:52:08.583Z,64.28
2019-03-31T08:54:39.420Z,64.85
2019-03-31T08:57:11.118Z,64.63
2019-03-31T08:59:44.390Z,65.33
2019-03-31T09:02:42.943Z,65.20
2019-03-31T09:05:14.014Z,65.13
2019-03-31T09:07:45.334Z,64.87
2019-03-31T09:10:17.270Z,65.60
2019-03-31T09:12:48.793Z,64.61
2019-03-31T09:15:20.987Z,63.99
2019-03-31T09:17:54.258Z,63.80
2019-03-31T09:20:24.110Z,62.68
2019-03-31T09:22:57.026Z,60.47
2019-03-31T09:25:28.829Z,58.12
2019-03-31T09:27:59.562Z,58.28
2019-03-31T09:30:30.244Z,58.18
2019-03-31T09:33:00.949Z,57.38
2019-03-31T09:35:32.717Z,56.66
2019-03-31T09:38:03.422Z,55.47
2019-03-31T09:40:35.704Z,55.39
2019-03-31T09:43:09.487Z,54.34
2019-03-31T09:45:40.269Z,54.59
2019-03-31T09:48:12.163Z,53.45
2019-03-31T09:50:42.892Z,52.56
2019-03-31T09:53:13.884Z,51.09
2019-03-31T09:55:44.612Z,51.40
2019-03-31T09:58:15.495Z,48.19
2019-03-31T10:00:48.264Z,48.01
2019-03-31T10:03:19.947Z,47.61
2019-03-31T10:05:50.783Z,46.74
2019-03-31T10:08:25.430Z,46.95
2019-03-31T10:10:56.157Z,48.71
2019-03-31T10:13:28.526Z,49.28
2019-03-31T10:15:59.168Z,49.36
2019-03-31T10:18:30.783Z,48.02
2019-03-31T10:21:01.940Z,47.08
2019-03-31T10:23:32.674Z,46.63
2019-03-31T10:26:07.667Z,45.38
2019-03-31T10:28:40.113Z,44.54
2019-03-31T10:31:11.926Z,43.43
2019-03-31T10:33:43.740Z,43.73
2019-03-31T10:36:14.470Z,45.28
2019-03-31T10:38:45.243Z,45.28
2019-03-31T10:41:16.868Z,44.72
2019-03-31T10:43:49.139Z,43.09
2019-03-31T10:46:19.899Z,43.27
2019-03-31T10:48:50.707Z,42.91
2019-03-31T10:51:22.903Z,42.86
2019-03-31T10:53:53.684Z,42.85
2019-03-31T10:56:24.517Z,41.77
2019-03-31T10:58:55.370Z,41.43
2019-03-31T11:01:27.403Z,41.32
2019-03-31T11:03:58.602Z,40.77
2019-03-31T11:06:29.923Z,40.66
2019-03-31T11:09:00.997Z,40.09
2019-03-31T11:11:33.405Z,39.37
2019-03-31T11:14:10.972Z,41.09
2019-03-31T11:16:41.288Z,41.02
2019-03-31T11:19:12.081Z,41.92
2019-03-31T11:21:57.273Z,42.25
2019-03-31T11:24:28.113Z,41.20
2019-03-31T11:26:58.849Z,42.11
2019-03-31T11:29:32.094Z,41.92
2019-03-31T11:32:02.928Z,41.86
2019-03-31T11:34:33.739Z,42.11
2019-03-31T11:37:13.391Z,42.33
2019-03-31T11:39:37.086Z,43.20
2019-03-31T11:42:17.561Z,43.38
2019-03-31T11:44:48.547Z,41.83
2019-03-31T11:47:23.133Z,40.02
2019-03-31T11:49:54.005Z,39.96
2019-03-31T11:52:24.766Z,40.98
2019-03-31T11:54:55.554Z,40.36
2019-03-31T11:57:26.316Z,40.31
2019-03-31T11:59:59.881Z,39.28
2019-03-31T12:02:30.584Z,37.16
2019-03-31T12:05:01.487Z,37.29
2019-03-31T12:07:47.026Z,37.48
2019-03-31T12:10:14.796Z,36.96
2019-03-31T12:12:49.322Z,36.01
2019-03-31T12:15:20.408Z,36.96
2019-03-31T12:17:51.173Z,37.37
2019-03-31T12:20:21.938Z,36.62
2019-03-31T12:22:53.714Z,36.00
2019-03-31T12:25:24.443Z,36.60
2019-03-31T12:27:55.261Z,36.51
2019-03-31T12:30:29.199Z,37.42
2019-03-31T12:33:02.831Z,38.42
2019-03-31T12:35:35.961Z,38.76
2019-03-31T12:38:06.663Z,38.62
2019-03-31T12:40:39.697Z,38.56
2019-03-31T12:43:10.363Z,38.85
2019-03-31T12:45:43.342Z,38.37
2019-03-31T12:48:14.417Z,38.32
2019-03-31T12:50:45.111Z,37.49
2019-03-31T12:53:17.326Z,36.99
2019-03-31T12:55:59.424Z,36.99
2019-03-31T12:58:20.405Z,37.45
2019-03-31T13:00:51.835Z,37.31
2019-03-31T13:03:22.588Z,36.47
2019-03-31T13:05:53.310Z,36.43
2019-03-31T13:08:25.166Z,36.49
2019-03-31T13:10:55.877Z,37.22
2019-03-31T13:13:26.637Z,36.17
2019-03-31T13:15:57.421Z,36.02
2019-03-31T13:18:28.395Z,36.45
2019-03-31T13:20:59.031Z,36.73
2019-03-31T13:23:29.903Z,36.72
2019-03-31T13:26:00.580Z,36.91
2019-03-31T13:28:31.289Z,37.16
2019-03-31T13:31:03.090Z,36.56
2019-03-31T13:33:33.982Z,36.85
2019-03-31T13:36:04.626Z,36.56
2019-03-31T13:38:35.463Z,36.05
2019-03-31T13:41:06.278Z,36.08
2019-03-31T13:43:37.009Z,36.36
2019-03-31T13:46:09.948Z,35.79
2019-03-31T13:48:40.731Z,36.12
2019-03-31T13:51:19.606Z,36.12
2019-03-31T13:53:51.093Z,36.39
2019-03-31T13:56:21.923Z,36.83
2019-03-31T13:58:53.226Z,36.65
2019-03-31T14:01:24.135Z,36.34
2019-03-31T14:03:55.073Z,36.21
2019-03-31T14:06:25.819Z,36.03
2019-03-31T14:08:56.488Z,36.19
2019-03-31T14:11:29.637Z,36.10
2019-03-31T14:14:00.677Z,35.31
2019-03-31T14:16:31.399Z,35.63
2019-03-31T14:19:02.070Z,36.12
2019-03-31T14:21:32.763Z,36.77
2019-03-31T14:24:03.542Z,37.19
2019-03-31T14:26:34.232Z,37.74
2019-03-31T14:29:04.925Z,37.92
2019-03-31T14:31:35.691Z,38.01
2019-03-31T14:34:06.378Z,37.57
2019-03-31T14:36:37.089Z,37.29
2019-03-31T14:39:09.486Z,36.97
2019-03-31T14:41:40.219Z,37.07
2019-03-31T14:44:11.035Z,36.50
2019-03-31T14:46:45.069Z,36.49
2019-03-31T14:49:17.419Z,36.77
2019-03-31T14:51:51.171Z,36.91
2019-03-31T14:54:21.939Z,36.69
2019-03-31T14:56:52.643Z,36.05
2019-03-31T14:59:23.947Z,36.14
2019-03-31T15:01:57.720Z,35.33
2019-03-31T15:04:29.605Z,35.17
2019-03-31T15:07:01.835Z,35.12
2019-03-31T15:09:32.526Z,34.50
2019-03-31T15:12:03.190Z,33.73
2019-03-31T15:14:34.208Z,33.72
2019-03-31T15:17:05.052Z,33.52
2019-03-31T15:19:39.041Z,33.26
2019-03-31T15:22:09.771Z,32.82
2019-03-31T15:24:40.459Z,33.05
2019-03-31T15:27:11.132Z,32.58
2019-03-31T15:29:44.208Z,33.11
2019-03-31T15:32:14.865Z,32.17
2019-03-31T15:34:45.545Z,31.71
2019-03-31T15:37:16.405Z,31.48
2019-03-31T15:39:47.089Z,32.63
2019-03-31T15:42:18.021Z,33.51
2019-03-31T15:44:49.171Z,34.73
2019-03-31T15:47:19.859Z,34.77
2019-03-31T15:49:50.692Z,34.84
2019-03-31T15:52:22.177Z,34.98
2019-03-31T15:54:52.936Z,34.71
2019-03-31T15:57:23.647Z,34.68
2019-03-31T15:59:54.410Z,33.57
2019-03-31T16:02:26.541Z,33.01
2019-03-31T16:04:57.314Z,32.77
2019-03-31T16:07:28.019Z,32.58
2019-03-31T16:09:58.230Z,32.51
2019-03-31T16:12:28.385Z,32.41
2019-03-31T16:14:58.556Z,32.34
2019-03-31T16:17:28.694Z,31.82
2019-03-31T16:19:58.789Z,31.81
2019-03-31T16:22:29.129Z,32.31
2019-03-31T16:25:00.697Z,31.90
2019-03-31T16:27:31.284Z,31.77
2019-03-31T16:30:01.603Z,32.19
2019-03-31T16:32:31.838Z,32.26
2019-03-31T16:35:05.866Z,32.57
2019-03-31T16:37:36.001Z,33.04
2019-03-31T16:40:06.601Z,32.78
2019-03-31T16:42:36.836Z,32.96
2019-03-31T16:45:10.233Z,32.90
2019-03-31T16:47:40.516Z,33.09
2019-03-31T16:50:10.888Z,33.18
2019-03-31T16:52:41.020Z,33.04
2019-03-31T16:55:11.868Z,32.10
2019-03-31T16:57:45.184Z,32.19
2019-03-31T17:00:15.707Z,32.09
2019-03-31T17:02:45.831Z,31.43
2019-03-31T17:05:22.129Z,31.89
2019-03-31T17:07:54.660Z,31.55
2019-03-31T17:10:24.893Z,31.86
2019-03-31T17:12:55.087Z,32.68
2019-03-31T17:15:25.368Z,33.71
2019-03-31T17:17:55.542Z,34.43
2019-03-31T17:20:25.592Z,35.25
2019-03-31T17:22:55.830Z,35.61
2019-03-31T17:25:27.290Z,36.23
2019-03-31T17:27:57.497Z,37.05
2019-03-31T17:30:27.650Z,38.27
2019-03-31T17:32:57.919Z,41.22
2019-03-31T17:35:28.214Z,39.76
2019-03-31T17:37:58.479Z,40.40
2019-03-31T17:40:28.806Z,40.00
2019-03-31T17:43:00.074Z,40.78
2019-03-31T17:45:33.908Z,40.40
2019-03-31T17:48:04.059Z,39.91
2019-03-31T17:50:37.534Z,39.84
2019-03-31T17:53:07.726Z,40.31
2019-03-31T17:55:37.891Z,40.23
2019-03-31T17:58:08.163Z,40.70
2019-03-31T18:00:38.629Z,40.81
2019-03-31T18:03:15.731Z,40.84
2019-03-31T18:05:48.802Z,41.33
2019-03-31T18:08:22.222Z,41.72
2019-03-31T18:10:53.718Z,42.13
2019-03-31T18:13:27.457Z,42.56
2019-03-31T18:16:08.042Z,42.85
2019-03-31T18:18:40.245Z,43.31
2019-03-31T18:21:12.054Z,43.41
2019-03-31T18:23:42.221Z,43.64
2019-03-31T18:26:21.491Z,44.07
2019-03-31T18:28:53.329Z,44.30
2019-03-31T18:31:25.825Z,44.19
2019-03-31T18:33:56.065Z,44.43
2019-03-31T18:36:36.583Z,44.72
2019-03-31T18:38:59.164Z,44.60
2019-03-31T18:41:33.791Z,44.82
2019-03-31T18:44:04.562Z,45.16
2019-03-31T18:46:37.724Z,45.20
2019-03-31T18:49:10.398Z,45.10
2019-03-31T18:51:45.701Z,45.39
2019-03-31T18:54:35.102Z,45.57
2019-03-31T18:57:26.825Z,46.00
2019-03-31T19:00:34.231Z,46.50
2019-03-31T19:03:26.359Z,46.99
2019-03-31T19:06:21.320Z,46.98
2019-03-31T19:09:25.174Z,47.18
2019-03-31T19:12:14.521Z,47.17
2019-03-31T19:15:05.584Z,47.38
2019-03-31T19:17:53.674Z,47.37
2019-03-31T19:20:49.034Z,47.40
2019-03-31T19:23:38.749Z,47.35
2019-03-31T19:26:29.058Z,47.14
2019-03-31T19:29:21.735Z,46.94
2019-03-31T19:32:14.751Z,47.19
2019-03-31T19:34:54.467Z,47.19
2019-03-31T19:37:46.829Z,47.07
2019-03-31T19:41:04.077Z,47.48
2019-03-31T19:43:45.943Z,47.15
2019-03-31T19:46:31.428Z,46.88
2019-03-31T19:49:33.075Z,47.04
2019-03-31T19:52:11.043Z,47.00
2019-03-31T19:55:01.846Z,47.21
2019-03-31T19:57:53.311Z,47.50
2019-03-31T20:00:51.810Z,47.49
2019-03-31T20:03:50.229Z,47.60
2019-03-31T20:06:38.129Z,47.62
2019-03-31T20:09:21.334Z,47.75
2019-03-31T20:12:19.659Z,47.85
2019-03-31T20:15:12.254Z,47.79
2019-03-31T20:17:59.612Z,47.99
2019-03-31T20:20:51.687Z,47.90
2019-03-31T20:23:44.027Z,48.18
2019-03-31T20:26:37.853Z,48.49
2019-03-31T20:29:20.828Z,48.57
2019-03-31T20:32:13.309Z,48.81
2019-03-31T20:35:01.677Z,48.79
2019-03-31T20:38:01.613Z,48.81
2019-03-31T20:40:39.929Z,49.06
2019-03-31T20:43:27.911Z,49.24
2019-03-31T20:45:58.801Z,49.29
2019-03-31T20:48:29.689Z,49.44
2019-03-31T20:50:59.887Z,49.42
2019-03-31T20:53:30.221Z,49.79
2019-03-31T20:56:00.511Z,49.76
2019-03-31T20:58:30.706Z,50.09
2019-03-31T21:01:01.005Z,50.13
2019-03-31T21:03:31.490Z,50.32
2019-03-31T21:06:01.918Z,50.45
2019-03-31T21:08:32.083Z,50.67
2019-03-31T21:11:02.225Z,50.87
2019-03-31T21:13:32.350Z,50.77
2019-03-31T21:16:02.570Z,51.01
2019-03-31T21:18:32.702Z,51.38
2019-03-31T21:21:03.197Z,51.25
2019-03-31T21:23:33.506Z,51.34
2019-03-31T21:26:03.895Z,51.70
2019-03-31T21:28:34.139Z,52.03
2019-03-31T21:31:04.320Z,52.06
2019-03-31T21:33:34.649Z,52.08
2019-03-31T21:36:05.088Z,52.30
2019-03-31T21:38:35.298Z,52.26
2019-03-31T21:41:05.518Z,52.47
2019-03-31T21:43:35.680Z,52.60
2019-03-31T21:46:08.215Z,52.89
2019-03-31T21:48:38.361Z,53.10
2019-03-31T21:51:08.498Z,53.25
2019-03-31T21:53:38.694Z,53.48
2019-03-31T21:56:08.835Z,53.89
2019-03-31T21:58:39.034Z,54.08
2019-03-31T22:01:09.286Z,53.75
2019-03-31T22:03:40.132Z,54.14
2019-03-31T22:06:11.982Z,54.15
2019-03-31T22:08:42.123Z,54.55
2019-03-31T22:11:12.382Z,55.16
2019-03-31T22:13:42.518Z,55.13
2019-03-31T22:16:12.756Z,55.21
2019-03-31T22:18:43.016Z,55.40
2019-03-31T22:21:13.152Z,55.59
2019-03-31T22:23:57.175Z,55.63
2019-03-31T22:26:15.160Z,55.98
2019-03-31T22:28:45.537Z,55.78
2019-03-31T22:31:15.780Z,56.06
2019-03-31T22:33:45.984Z,55.83
2019-03-31T22:36:22.258Z,56.39
2019-03-31T22:38:53.644Z,55.85
2019-03-31T22:41:23.766Z,56.21
2019-03-31T22:43:54.035Z,56.77
2019-03-31T22:46:24.131Z,56.88
2019-03-31T22:48:54.384Z,56.90
2019-03-31T22:51:24.480Z,56.81
2019-03-31T22:53:54.673Z,56.96
2019-03-31T22:56:25.039Z,57.87
2019-03-31T22:58:55.316Z,57.15
2019-03-31T23:01:28.453Z,57.34
2019-03-31T23:03:58.626Z,57.62
2019-03-31T23:06:28.753Z,58.05
2019-03-31T23:08:59.870Z,58.19
2019-03-31T23:11:32.298Z,57.90
2019-03-31T23:14:05.356Z,58.36
2019-03-31T23:16:35.704Z,58.48
2019-03-31T23:19:05.848Z,58.86
2019-03-31T23:21:37.132Z,58.92
2019-03-31T23:24:07.349Z,58.46
2019-03-31T23:26:38.430Z,59.09
2019-03-31T23:29:10.692Z,59.35
2019-03-31T23:31:40.789Z,60.38
2019-03-31T23:34:10.931Z,59.44
2019-03-31T23:36:41.061Z,59.65
2019-03-31T23:39:11.403Z,59.90
2019-03-31T23:41:41.678Z,59.45
2019-03-31T23:44:14.920Z,59.50
2019-03-31T23:46:45.225Z,58.85
2019-03-31T23:49:15.439Z,58.82
2019-03-31T23:51:45.593Z,59.17
2019-03-31T23:54:18.747Z,59.08
2019-03-31T23:56:50.517Z,59.73
2019-03-31T23:59:25.131Z,59.53
